createdAt,value
2022-10-19T00:02:30.775Z,100.00
2022-10-19T00:05:19.967Z,100.00
2022-10-19T00:08:08.810Z,100.00
2022-10-19T00:13:50.435Z,100.00
2022-10-19T00:19:24.003Z,100.00
2022-10-19T00:22:14.059Z,100.00
2022-10-19T00:27:49.468Z,100.00
2022-10-19T00:30:38.781Z,100.00
2022-10-19T00:36:18.592Z,100.00
2022-10-19T00:41:55.652Z,100.00
2022-10-19T00:47:54.274Z,100.00
2022-10-19T00:50:43.886Z,100.00
2022-10-19T00:56:18.116Z,100.00
2022-10-19T01:01:47.811Z,100.00
2022-10-19T01:04:38.170Z,100.00
2022-10-19T01:07:27.646Z,100.00
2022-10-19T01:10:17.091Z,100.00
2022-10-19T01:16:09.968Z,100.00
2022-10-19T01:21:54.536Z,100.00
2022-10-19T01:28:04.946Z,100.00
2022-10-19T01:33:43.368Z,100.00
2022-10-19T01:42:09.512Z,100.00
2022-10-19T01:47:47.314Z,100.00
2022-10-19T01:50:38.254Z,100.00
2022-10-19T01:53:28.927Z,100.00
2022-10-19T01:59:09.979Z,100.00
2022-10-19T02:04:50.306Z,100.00
2022-10-19T02:10:29.144Z,100.00
2022-10-19T02:13:17.773Z,100.00
2022-10-19T02:19:00.574Z,100.00
2022-10-19T02:21:50.019Z,100.00
2022-10-19T02:27:32.705Z,100.00
2022-10-19T02:30:22.773Z,100.00
2022-10-19T02:36:06.841Z,100.00
2022-10-19T02:38:55.934Z,100.00
2022-10-19T02:44:37.257Z,100.00
2022-10-19T02:50:16.366Z,100.00
2022-10-19T02:55:52.741Z,100.00
2022-10-19T02:58:40.899Z,100.00
2022-10-19T03:04:14.305Z,100.00
2022-10-19T03:10:00.908Z,100.00
2022-10-19T03:15:35.650Z,100.00
2022-10-19T03:18:24.052Z,100.00
2022-10-19T03:21:15.468Z,100.00
2022-10-19T03:26:48.758Z,100.00
2022-10-19T03:29:38.568Z,100.00
2022-10-19T03:35:20.224Z,100.00
2022-10-19T03:43:49.042Z,100.00
2022-10-19T03:49:40.223Z,100.00
2022-10-19T03:52:27.818Z,100.00
2022-10-19T03:55:16.296Z,100.00
2022-10-19T04:03:38.358Z,100.00
2022-10-19T04:09:17.460Z,100.00
2022-10-19T04:12:09.640Z,100.00
2022-10-19T04:17:48.526Z,100.00
2022-10-19T04:23:29.668Z,100.00
2022-10-19T04:26:18.272Z,100.00
2022-10-19T04:34:45.866Z,100.00
2022-10-19T04:40:23.466Z,100.00
2022-10-19T04:43:11.646Z,100.00
2022-10-19T04:46:03.982Z,100.00
2022-10-19T04:48:54.149Z,100.00
2022-10-19T04:54:30.966Z,100.00
2022-10-19T05:00:01.392Z,100.00
2022-10-19T05:19:57.978Z,100.00
2022-10-19T05:36:57.303Z,100.00
2022-10-19T05:43:34.598Z,100.00
2022-10-19T05:54:55.797Z,100.00
2022-10-19T06:05:18.284Z,100.00
2022-10-19T06:10:49.435Z,100.00
2022-10-19T06:16:26.364Z,100.00
2022-10-19T06:22:05.783Z,100.00
2022-10-19T06:27:39.000Z,100.00
2022-10-19T06:30:27.484Z,100.00
2022-10-19T06:36:10.362Z,100.00
2022-10-19T06:41:46.039Z,100.00
2022-10-19T06:47:30.276Z,100.00
2022-10-19T06:50:18.780Z,100.00
2022-10-19T06:55:48.169Z,100.00
2022-10-19T07:01:29.124Z,100.00
2022-10-19T07:04:18.075Z,100.00
2022-10-19T07:09:55.073Z,100.00
2022-10-19T07:15:30.168Z,100.00
2022-10-19T07:18:21.126Z,100.00
2022-10-19T07:21:10.846Z,100.00
2022-10-19T07:26:48.203Z,100.00
2022-10-19T07:32:32.541Z,100.00
2022-10-19T07:38:12.389Z,100.00
2022-10-19T07:43:55.697Z,100.00
2022-10-19T07:49:45.385Z,100.00
2022-10-19T07:52:36.764Z,100.00
2022-10-19T07:58:10.606Z,100.00
2022-10-19T08:14:57.302Z,100.00
2022-10-19T08:20:32.442Z,100.00
2022-10-19T08:23:22.850Z,100.00
2022-10-19T08:28:54.828Z,100.00
2022-10-19T08:31:43.844Z,100.00
2022-10-19T08:37:40.157Z,100.00
2022-10-19T08:43:13.375Z,100.00
2022-10-19T08:46:05.592Z,100.00
2022-10-19T08:48:56.459Z,100.00
2022-10-19T08:54:28.705Z,100.00
2022-10-19T08:57:24.666Z,100.00
2022-10-19T09:03:00.582Z,100.00
2022-10-19T09:08:36.116Z,100.00
2022-10-19T09:14:16.338Z,100.00
2022-10-19T09:19:55.906Z,100.00
2022-10-19T09:25:35.768Z,100.00
2022-10-19T09:31:06.906Z,100.00
2022-10-19T09:36:50.652Z,100.00
2022-10-19T09:39:35.317Z,100.00
2022-10-19T09:45:21.194Z,100.00
2022-10-19T09:51:16.264Z,100.00
2022-10-19T09:56:55.709Z,100.00
2022-10-19T09:59:44.704Z,100.00
2022-10-19T10:02:34.939Z,100.00
2022-10-19T10:08:28.139Z,99.77
2022-10-19T10:11:19.098Z,98.04
2022-10-19T10:16:57.306Z,96.35
2022-10-19T10:19:53.845Z,97.43
2022-10-19T10:25:36.057Z,96.18
2022-10-19T10:34:11.155Z,95.79
2022-10-19T10:39:47.670Z,94.36
2022-10-19T10:45:34.156Z,94.45
2022-10-19T10:51:23.570Z,91.60
2022-10-19T10:54:23.804Z,89.30
2022-10-19T11:00:16.481Z,85.17
2022-10-19T11:03:11.768Z,86.03
2022-10-19T11:09:03.595Z,82.38
2022-10-19T11:14:51.498Z,83.78
2022-10-19T11:17:56.697Z,83.90
2022-10-19T11:23:58.905Z,86.38
2022-10-19T11:30:07.483Z,93.24
2022-10-19T11:33:08.418Z,95.08
2022-10-19T11:38:54.839Z,92.02
2022-10-19T11:44:37.670Z,91.94
2022-10-19T11:51:20.922Z,89.34
2022-10-19T11:57:03.326Z,88.90
2022-10-19T12:03:24.217Z,88.20
2022-10-19T12:09:12.701Z,85.41
2022-10-19T12:15:29.265Z,87.18
2022-10-19T12:21:13.121Z,87.37
2022-10-19T12:27:05.779Z,87.25
2022-10-19T12:32:59.733Z,84.55
2022-10-19T12:38:46.892Z,81.76
2022-10-19T12:42:03.239Z,82.73
2022-10-19T12:45:38.485Z,82.14
2022-10-19T12:51:20.513Z,83.34
2022-10-19T12:56:59.900Z,83.83
2022-10-19T13:03:15.556Z,84.08
2022-10-19T13:09:05.487Z,84.71
2022-10-19T13:15:39.913Z,80.81
2022-10-19T13:19:13.518Z,81.36
2022-10-19T13:22:29.088Z,80.55
2022-10-19T13:28:54.978Z,78.86
2022-10-19T13:34:33.769Z,78.95
2022-10-19T13:43:54.154Z,78.94
2022-10-19T13:47:03.955Z,79.12
2022-10-19T13:53:26.473Z,75.81
2022-10-19T13:57:04.317Z,77.27
2022-10-19T14:03:18.689Z,78.26
2022-10-19T14:06:22.273Z,78.89
2022-10-19T14:12:36.703Z,77.94
2022-10-19T14:15:51.222Z,76.47
2022-10-19T14:18:50.699Z,76.43
2022-10-19T14:21:52.835Z,77.43
2022-10-19T14:25:17.309Z,77.58
2022-10-19T14:31:20.935Z,77.89
2022-10-19T14:34:18.272Z,79.57
2022-10-19T14:37:11.013Z,80.24
2022-10-19T14:43:00.858Z,80.39
2022-10-19T14:46:13.525Z,81.18
2022-10-19T14:49:09.779Z,81.72
2022-10-19T14:52:10.201Z,80.14
2022-10-19T15:04:01.534Z,79.03
2022-10-19T15:10:05.082Z,79.01
2022-10-19T15:16:01.063Z,79.12
2022-10-19T15:21:44.523Z,83.46
2022-10-19T15:25:02.690Z,84.95
2022-10-19T15:28:07.409Z,86.53
2022-10-19T15:34:01.253Z,89.42
2022-10-19T15:39:49.568Z,89.86
2022-10-19T15:45:33.990Z,90.02
2022-10-19T15:48:56.343Z,90.20
2022-10-19T15:54:51.328Z,92.11
2022-10-19T16:01:13.830Z,91.91
2022-10-19T16:04:14.224Z,92.87
2022-10-19T16:07:20.648Z,93.86
2022-10-19T16:13:25.894Z,93.19
2022-10-19T16:19:04.472Z,91.84
2022-10-19T16:25:25.289Z,93.32
2022-10-19T16:31:27.449Z,94.65
2022-10-19T16:37:22.466Z,96.67
2022-10-19T16:43:13.191Z,96.59
2022-10-19T16:46:13.528Z,97.63
2022-10-19T17:03:30.580Z,100.00
2022-10-19T17:06:35.634Z,100.00
2022-10-19T17:09:42.202Z,100.00
2022-10-19T17:15:37.545Z,100.00
2022-10-19T17:21:06.399Z,100.00
2022-10-19T17:24:21.159Z,100.00
2022-10-19T17:30:27.442Z,100.00
2022-10-19T17:33:25.506Z,100.00
2022-10-19T17:42:29.709Z,100.00
2022-10-19T17:45:32.003Z,100.00
2022-10-19T17:48:44.416Z,100.00
2022-10-19T17:55:13.685Z,100.00
2022-10-19T18:04:31.629Z,100.00
2022-10-19T18:10:27.910Z,100.00
2022-10-19T18:13:46.671Z,100.00
2022-10-19T18:19:31.907Z,100.00
2022-10-19T18:25:21.755Z,100.00
2022-10-19T18:31:45.245Z,100.00
2022-10-19T18:34:39.432Z,100.00
2022-10-19T18:40:42.548Z,100.00
2022-10-19T18:46:56.670Z,100.00
2022-10-19T18:53:03.973Z,100.00
2022-10-19T19:00:09.732Z,100.00
2022-10-19T19:03:26.127Z,100.00
2022-10-19T19:10:15.862Z,100.00
2022-10-19T19:16:07.769Z,100.00
2022-10-19T19:19:27.300Z,100.00
2022-10-19T19:25:51.882Z,100.00
2022-10-19T19:31:42.047Z,100.00
2022-10-19T19:38:06.842Z,100.00
2022-10-19T19:43:43.611Z,100.00
2022-10-19T19:47:02.304Z,100.00
2022-10-19T19:53:15.676Z,100.00
2022-10-19T19:56:11.245Z,100.00
2022-10-19T20:02:54.170Z,100.00
2022-10-19T20:12:05.058Z,100.00
2022-10-19T20:14:59.520Z,100.00
2022-10-19T20:23:29.153Z,100.00
2022-10-19T20:29:27.615Z,100.00
2022-10-19T20:35:30.095Z,100.00
2022-10-19T20:38:45.749Z,100.00
2022-10-19T20:41:59.025Z,100.00
2022-10-19T20:51:31.721Z,100.00
2022-10-19T20:57:31.345Z,100.00
2022-10-19T21:00:25.963Z,100.00
2022-10-19T21:06:40.424Z,100.00
2022-10-19T21:12:36.441Z,100.00
2022-10-19T21:18:41.700Z,100.00
2022-10-19T21:21:48.655Z,100.00
2022-10-19T21:27:49.729Z,100.00
2022-10-19T21:31:03.169Z,100.00
2022-10-19T21:36:45.530Z,100.00
2022-10-19T21:39:36.900Z,100.00
2022-10-19T21:42:29.273Z,100.00
2022-10-19T21:48:03.956Z,100.00
2022-10-19T21:53:45.386Z,100.00
2022-10-19T21:59:52.453Z,100.00
2022-10-19T22:02:44.164Z,100.00
2022-10-19T22:09:06.274Z,100.00
2022-10-19T22:15:01.540Z,100.00
2022-10-19T22:20:49.498Z,100.00
2022-10-19T22:23:44.894Z,100.00
2022-10-19T22:26:46.938Z,100.00
2022-10-19T22:32:33.134Z,100.00
2022-10-19T22:35:25.936Z,100.00
2022-10-19T22:41:39.898Z,100.00
2022-10-19T22:45:21.196Z,100.00
2022-10-19T22:49:02.922Z,100.00
2022-10-19T22:52:44.797Z,100.00
2022-10-19T22:58:21.375Z,100.00
2022-10-19T23:04:01.996Z,100.00
2022-10-19T23:09:37.373Z,100.00
2022-10-19T23:12:27.827Z,100.00
2022-10-19T23:18:03.789Z,100.00
2022-10-19T23:20:55.968Z,100.00
2022-10-19T23:26:38.578Z,100.00
2022-10-19T23:32:15.517Z,100.00
2022-10-19T23:37:50.718Z,100.00
2022-10-19T23:43:25.796Z,100.00
2022-10-19T23:46:14.366Z,100.00
2022-10-19T23:51:55.127Z,100.00
2022-10-19T23:57:31.251Z,100.00
